createdAt,value
2018-01-08T00:02:02.736Z,13.27
2018-01-08T00:04:30.320Z,13.23
2018-01-08T00:06:57.913Z,14.07
2018-01-08T00:09:25.489Z,13.70
2018-01-08T00:11:53.106Z,14.10
2018-01-08T00:14:20.673Z,15.47
2018-01-08T00:16:49.534Z,14.00
2018-01-08T00:19:17.093Z,14.40
2018-01-08T00:21:44.889Z,15.27
2018-01-08T00:24:13.250Z,14.83
2018-01-08T00:26:40.981Z,14.67
2018-01-08T00:29:08.849Z,14.10
2018-01-08T00:31:36.649Z,14.80
2018-01-08T00:34:04.210Z,15.30
2018-01-08T00:36:31.851Z,13.73
2018-01-08T00:38:59.413Z,16.60
2018-01-08T00:41:27.016Z,15.17
2018-01-08T00:43:55.320Z,17.50
2018-01-08T00:46:23.784Z,15.40
2018-01-08T00:48:52.271Z,15.53
2018-01-08T00:51:20.113Z,16.40
2018-01-08T00:53:48.413Z,14.07
2018-01-08T00:56:15.962Z,14.90
2018-01-08T00:58:43.578Z,14.00
2018-01-08T01:01:11.151Z,17.60
2018-01-08T01:03:38.726Z,15.00
2018-01-08T01:06:06.313Z,14.63
2018-01-08T01:08:33.925Z,17.40
2018-01-08T01:11:01.536Z,13.40
2018-01-08T01:13:29.453Z,15.57
2018-01-08T01:15:57.044Z,12.80
2018-01-08T01:18:24.584Z,15.20
2018-01-08T01:20:52.937Z,12.37
2018-01-08T01:23:20.469Z,14.23
2018-01-08T01:25:48.148Z,17.43
2018-01-08T01:28:15.693Z,14.53
2018-01-08T01:30:43.666Z,12.13
2018-01-08T01:33:11.215Z,14.10
2018-01-08T01:35:38.846Z,12.27
2018-01-08T01:38:07.187Z,13.00
2018-01-08T01:40:34.749Z,10.90
2018-01-08T01:43:02.340Z,16.13
2018-01-08T01:45:29.877Z,13.40
2018-01-08T01:47:57.928Z,13.77
2018-01-08T01:50:25.458Z,14.70
2018-01-08T01:52:53.265Z,13.53
2018-01-08T01:55:21.640Z,13.40
2018-01-08T01:57:49.206Z,12.70
2018-01-08T02:00:16.864Z,14.27
2018-01-08T02:02:44.430Z,14.20
2018-01-08T02:05:12.014Z,12.80
2018-01-08T02:07:40.325Z,16.37
2018-01-08T02:10:07.855Z,13.73
2018-01-08T02:12:35.442Z,12.70
2018-01-08T02:15:02.982Z,11.50
2018-01-08T02:17:30.597Z,13.83
2018-01-08T02:19:58.985Z,15.37
2018-01-08T02:22:27.025Z,12.13
2018-01-08T02:24:54.573Z,15.50
2018-01-08T02:27:22.127Z,13.90
2018-01-08T02:29:49.708Z,7.80
2018-01-08T02:32:17.289Z,11.47
2018-01-08T02:34:44.868Z,15.03
2018-01-08T02:37:12.413Z,13.37
2018-01-08T02:39:40.038Z,11.30
2018-01-08T02:42:07.603Z,14.60
2018-01-08T02:44:35.570Z,16.93
2018-01-08T02:47:03.106Z,14.23
2018-01-08T02:49:30.742Z,17.67
2018-01-08T02:51:59.069Z,16.53
2018-01-08T02:54:26.620Z,15.17
2018-01-08T02:56:54.205Z,14.30
2018-01-08T02:59:21.765Z,15.27
2018-01-08T03:01:49.733Z,11.10
2018-01-08T03:04:17.326Z,13.57
2018-01-08T03:06:45.809Z,15.80
2018-01-08T03:09:13.433Z,14.80
2018-01-08T03:11:40.970Z,13.40
2018-01-08T03:14:08.599Z,15.27
2018-01-08T03:16:36.146Z,17.50
2018-01-08T03:19:03.730Z,17.07
2018-01-08T03:21:31.277Z,16.23
2018-01-08T03:23:59.243Z,14.53
2018-01-08T03:26:27.550Z,12.20
2018-01-08T03:28:55.930Z,14.57
2018-01-08T03:31:23.515Z,15.37
2018-01-08T03:33:51.072Z,15.53
2018-01-08T03:36:18.702Z,10.73
2018-01-08T03:38:46.271Z,12.77
2018-01-08T03:41:13.845Z,14.13
2018-01-08T03:43:41.414Z,13.00
2018-01-08T03:46:09.374Z,12.60
2018-01-08T03:48:36.914Z,12.27
2018-01-08T03:51:04.497Z,10.97
2018-01-08T03:53:32.101Z,12.03
2018-01-08T03:56:00.412Z,13.60
2018-01-08T03:58:28.023Z,15.97
2018-01-08T04:00:55.581Z,12.80
2018-01-08T04:03:23.547Z,14.70
2018-01-08T04:05:51.117Z,13.37
2018-01-08T04:08:18.685Z,11.70
2018-01-08T04:10:46.313Z,15.40
2018-01-08T04:13:14.017Z,13.10
2018-01-08T04:15:41.636Z,12.57
2018-01-08T04:18:09.204Z,15.53
2018-01-08T04:20:37.287Z,13.97
2018-01-08T04:23:05.725Z,12.13
2018-01-08T04:25:33.312Z,14.30
2018-01-08T04:28:00.934Z,14.13
2018-01-08T04:30:28.485Z,11.30
2018-01-08T04:32:56.093Z,14.27
2018-01-08T04:35:23.669Z,14.70
2018-01-08T04:37:52.034Z,14.13
2018-01-08T04:40:19.632Z,14.17
2018-01-08T04:42:47.873Z,14.57
2018-01-08T04:45:15.532Z,14.67
2018-01-08T04:47:43.229Z,13.50
2018-01-08T04:50:10.796Z,12.13
2018-01-08T04:52:38.353Z,12.80
2018-01-08T04:55:06.220Z,15.13
2018-01-08T04:57:33.778Z,14.33
2018-01-08T05:00:01.326Z,15.60
2018-01-08T05:02:28.905Z,14.80
2018-01-08T05:04:56.479Z,15.83
2018-01-08T05:07:24.076Z,15.97
2018-01-08T05:09:52.584Z,14.63
2018-01-08T05:12:21.247Z,14.10
2018-01-08T05:14:48.798Z,14.13
2018-01-08T05:17:16.360Z,16.00
2018-01-08T05:19:44.201Z,17.90
2018-01-08T05:22:11.913Z,15.30
2018-01-08T05:24:40.262Z,14.60
2018-01-08T05:27:09.346Z,13.20
2018-01-08T05:29:37.303Z,16.33
2018-01-08T05:32:04.863Z,14.97
2018-01-08T05:34:32.413Z,15.07
2018-01-08T05:37:00.030Z,14.00
2018-01-08T05:39:27.578Z,13.07
2018-01-08T05:41:55.414Z,11.83
2018-01-08T05:44:22.952Z,12.37
2018-01-08T05:46:50.490Z,8.50
2018-01-08T05:49:18.181Z,14.83
2018-01-08T05:51:45.723Z,12.20
2018-01-08T05:54:13.713Z,15.20
2018-01-08T05:56:41.253Z,14.23
2018-01-08T05:59:08.791Z,13.00
2018-01-08T06:01:36.904Z,13.40
2018-01-08T06:04:04.454Z,15.03
2018-01-08T06:06:32.013Z,12.77
2018-01-08T06:08:59.576Z,12.70
2018-01-08T06:11:27.149Z,13.20
2018-01-08T06:13:54.720Z,13.17
2018-01-08T06:16:22.261Z,15.47
2018-01-08T06:18:50.322Z,13.83
2018-01-08T06:21:17.857Z,12.93
2018-01-08T06:23:45.428Z,14.27
2018-01-08T06:26:13.014Z,15.73
2018-01-08T06:28:40.813Z,14.73
2018-01-08T06:31:08.402Z,13.60
2018-01-08T06:33:35.946Z,12.70
2018-01-08T06:36:04.252Z,12.77
2018-01-08T06:38:31.834Z,13.67
2018-01-08T06:40:59.370Z,13.73
2018-01-08T06:43:27.361Z,11.33
2018-01-08T06:45:54.905Z,9.30
2018-01-08T06:48:22.446Z,10.67
2018-01-08T06:50:50.044Z,11.60
2018-01-08T06:53:17.586Z,11.83
2018-01-08T06:55:45.175Z,11.07
2018-01-08T06:58:12.710Z,9.67
2018-01-08T07:00:40.774Z,6.27
2018-01-08T07:03:08.322Z,11.70
2018-01-08T07:05:35.961Z,8.70
2018-01-08T07:08:04.311Z,10.90
2018-01-08T07:10:31.857Z,8.83
2018-01-08T07:12:59.467Z,9.53
2018-01-08T07:15:27.035Z,12.63
2018-01-08T07:17:54.770Z,13.03
2018-01-08T07:20:22.314Z,7.80
2018-01-08T07:22:49.858Z,7.10
2018-01-08T07:25:17.434Z,10.50
2018-01-08T07:27:44.990Z,7.23
2018-01-08T07:30:14.070Z,8.90
2018-01-08T07:32:41.618Z,10.63
2018-01-08T07:35:09.205Z,9.60
2018-01-08T07:37:36.762Z,10.17
2018-01-08T07:40:04.300Z,7.90
2018-01-08T07:42:31.885Z,11.80
2018-01-08T07:44:59.438Z,10.23
2018-01-08T07:47:27.239Z,12.87
2018-01-08T07:49:55.550Z,8.43
2018-01-08T07:52:23.128Z,9.40
2018-01-08T07:54:50.694Z,12.40
2018-01-08T07:57:18.263Z,12.20
2018-01-08T07:59:46.030Z,10.63
2018-01-08T08:02:13.565Z,8.97
2018-01-08T08:04:41.213Z,11.13
2018-01-08T08:07:08.755Z,7.27
2018-01-08T08:09:36.349Z,10.60
2018-01-08T08:12:04.150Z,11.70
2018-01-08T08:14:32.581Z,10.10
2018-01-08T08:17:00.125Z,13.23
2018-01-08T08:19:27.664Z,13.70
2018-01-08T08:21:55.251Z,14.27
2018-01-08T08:24:22.789Z,11.67
2018-01-08T08:26:50.370Z,12.70
2018-01-08T08:29:17.909Z,14.40
2018-01-08T08:31:45.498Z,13.80
2018-01-08T08:34:13.038Z,11.77
2018-01-08T08:36:41.351Z,13.80
2018-01-08T08:39:09.075Z,12.43
2018-01-08T08:41:36.632Z,16.70
2018-01-08T08:44:04.212Z,12.23
2018-01-08T08:46:31.764Z,15.90
2018-01-08T08:48:59.346Z,13.40
2018-01-08T08:51:26.918Z,15.73
2018-01-08T08:53:54.522Z,16.53
2018-01-08T08:56:22.070Z,16.47
2018-01-08T08:58:50.382Z,13.23
2018-01-08T09:01:17.978Z,16.20
2018-01-08T09:03:46.282Z,14.87
2018-01-08T09:06:14.640Z,14.57
2018-01-08T09:08:42.189Z,15.53
2018-01-08T09:11:09.784Z,16.10
2018-01-08T09:13:37.380Z,16.20
2018-01-08T09:16:04.898Z,16.10
2018-01-08T09:18:32.478Z,14.87
2018-01-08T09:21:00.028Z,16.10
2018-01-08T09:23:27.613Z,16.40
2018-01-08T09:25:55.242Z,16.07
2018-01-08T09:28:22.928Z,15.57
2018-01-08T09:30:50.472Z,15.90
2018-01-08T09:33:18.097Z,17.33
2018-01-08T09:35:45.643Z,14.23
2018-01-08T09:38:13.190Z,16.43
2018-01-08T09:40:41.529Z,18.10
2018-01-08T09:43:09.070Z,18.53
2018-01-08T09:45:37.697Z,16.37
2018-01-08T09:48:05.242Z,16.23
2018-01-08T09:50:32.806Z,17.00
2018-01-08T09:53:00.389Z,17.30
2018-01-08T09:55:27.935Z,17.30
2018-01-08T09:57:55.523Z,17.03
2018-01-08T10:00:24.575Z,16.40
2018-01-08T10:03:03.793Z,19.17
2018-01-08T10:05:43.172Z,17.23
2018-01-08T10:08:22.426Z,16.90
2018-01-08T10:11:01.771Z,14.00
2018-01-08T10:13:41.029Z,16.23
2018-01-08T10:16:20.327Z,17.80
2018-01-08T10:18:48.705Z,15.87
2018-01-08T10:21:16.258Z,13.60
2018-01-08T10:23:43.841Z,11.10
2018-01-08T10:26:11.392Z,16.90
2018-01-08T10:28:38.938Z,17.00
2018-01-08T10:31:06.546Z,16.60
2018-01-08T10:33:34.096Z,11.37
2018-01-08T10:36:01.710Z,15.07
2018-01-08T10:38:29.253Z,14.00
2018-01-08T10:40:56.361Z,14.17
2018-01-08T10:43:29.465Z,15.57
2018-01-08T10:46:02.955Z,14.37
2018-01-08T10:48:36.837Z,14.30
2018-01-08T10:51:09.956Z,15.93
2018-01-08T10:53:38.246Z,13.27
2018-01-08T10:56:06.181Z,14.20
2018-01-08T10:58:33.724Z,12.30
2018-01-08T11:01:07.298Z,17.00
2018-01-08T11:03:40.412Z,17.53
2018-01-08T11:06:09.993Z,18.90
2018-01-08T11:08:37.536Z,14.53
2018-01-08T11:11:05.083Z,17.63
2018-01-08T11:13:32.802Z,16.57
2018-01-08T11:16:00.363Z,16.30
2018-01-08T11:18:27.973Z,17.90
2018-01-08T11:20:55.692Z,17.27
2018-01-08T11:23:23.230Z,18.10
2018-01-08T11:25:50.832Z,17.17
2018-01-08T11:28:18.385Z,15.30
2018-01-08T11:30:46.750Z,16.30
2018-01-08T11:33:14.293Z,17.73
2018-01-08T11:35:41.883Z,15.70
2018-01-08T11:38:09.476Z,15.20
2018-01-08T11:40:37.050Z,15.43
2018-01-08T11:43:04.666Z,16.13
2018-01-08T11:45:32.441Z,16.57
2018-01-08T11:48:00.455Z,16.17
2018-01-08T11:50:28.001Z,16.50
2018-01-08T11:52:55.785Z,16.00
2018-01-08T11:55:24.278Z,14.97
2018-01-08T11:57:51.848Z,14.57
2018-01-08T12:00:19.430Z,16.90
2018-01-08T12:02:46.986Z,15.27
2018-01-08T12:05:14.673Z,17.90
2018-01-08T12:07:42.293Z,21.20
2018-01-08T12:10:09.842Z,18.80
2018-01-08T12:12:37.416Z,14.00
2018-01-08T12:15:05.164Z,15.43
2018-01-08T12:17:32.741Z,14.33
2018-01-08T12:20:00.309Z,15.43
2018-01-08T12:22:27.882Z,14.73
2018-01-08T12:24:55.472Z,16.20
2018-01-08T12:27:23.050Z,14.87
2018-01-08T12:29:51.010Z,13.47
2018-01-08T12:32:18.565Z,11.47
2018-01-08T12:34:46.131Z,14.63
2018-01-08T12:37:13.723Z,12.50
2018-01-08T12:39:41.288Z,10.10
2018-01-08T12:42:09.869Z,13.90
2018-01-08T12:44:37.423Z,15.60
2018-01-08T12:47:05.831Z,10.47
2018-01-08T12:49:33.387Z,16.00
2018-01-08T12:52:00.924Z,16.27
2018-01-08T12:54:28.653Z,15.47
2018-01-08T12:56:56.217Z,17.13
2018-01-08T12:59:23.800Z,17.63
2018-01-08T13:01:51.351Z,16.10
2018-01-08T13:04:18.955Z,17.13
2018-01-08T13:06:46.515Z,14.80
2018-01-08T13:09:14.211Z,15.70
2018-01-08T13:11:41.786Z,14.80
2018-01-08T13:14:09.350Z,17.40
2018-01-08T13:16:36.945Z,18.43
2018-01-08T13:19:04.533Z,14.97
2018-01-08T13:21:32.150Z,18.30
2018-01-08T13:23:59.721Z,14.53
2018-01-08T13:26:27.307Z,17.13
2018-01-08T13:28:54.888Z,19.17
2018-01-08T13:31:22.506Z,19.60
2018-01-08T13:33:50.118Z,18.23
2018-01-08T13:36:17.929Z,17.40
2018-01-08T13:38:46.300Z,15.13
2018-01-08T13:41:13.869Z,19.10
2018-01-08T13:43:42.398Z,15.47
2018-01-08T13:46:11.380Z,18.37
2018-01-08T13:48:39.006Z,17.97
2018-01-08T13:51:06.614Z,16.90
2018-01-08T13:53:34.194Z,15.67
2018-01-08T13:56:01.776Z,17.27
2018-01-08T13:58:30.127Z,19.60
2018-01-08T14:00:57.689Z,17.20
2018-01-08T14:03:25.278Z,17.47
2018-01-08T14:05:53.597Z,17.73
2018-01-08T14:08:21.173Z,17.60
2018-01-08T14:10:48.749Z,16.90
2018-01-08T14:13:16.291Z,17.80
2018-01-08T14:15:43.904Z,17.37
2018-01-08T14:18:11.460Z,16.10
2018-01-08T14:20:40.076Z,18.80
2018-01-08T14:23:07.621Z,18.53
2018-01-08T14:25:35.220Z,16.90
2018-01-08T14:28:02.884Z,17.73
2018-01-08T14:30:30.489Z,17.43
2018-01-08T14:32:58.131Z,17.10
2018-01-08T14:35:25.707Z,15.90
2018-01-08T14:37:54.013Z,14.90
2018-01-08T14:40:21.605Z,18.23
2018-01-08T14:42:49.194Z,14.90
2018-01-08T14:45:16.811Z,15.50
2018-01-08T14:47:44.414Z,14.33
2018-01-08T14:50:12.789Z,15.53
2018-01-08T14:52:40.354Z,16.03
2018-01-08T14:55:08.704Z,14.10
2018-01-08T14:57:36.303Z,15.70
2018-01-08T15:00:04.636Z,15.60
2018-01-08T15:02:32.284Z,13.47
2018-01-08T15:04:59.842Z,15.97
2018-01-08T15:07:27.441Z,17.47
2018-01-08T15:09:55.035Z,16.67
2018-01-08T15:12:22.907Z,17.63
2018-01-08T15:14:50.584Z,16.10
2018-01-08T15:17:18.149Z,16.97
2018-01-08T15:19:45.750Z,16.33
2018-01-08T15:22:13.957Z,15.87
2018-01-08T15:24:41.555Z,15.57
2018-01-08T15:27:09.365Z,18.27
2018-01-08T15:29:37.672Z,18.73
2018-01-08T15:32:05.638Z,15.27
2018-01-08T15:34:33.210Z,17.77
2018-01-08T15:37:01.748Z,15.70
2018-01-08T15:39:29.331Z,17.93
2018-01-08T15:41:56.934Z,17.40
2018-01-08T15:44:24.500Z,16.70
2018-01-08T15:46:52.126Z,18.53
2018-01-08T15:49:19.698Z,16.53
2018-01-08T15:51:47.249Z,18.30
2018-01-08T15:54:14.944Z,20.67
2018-01-08T15:56:43.291Z,17.57
2018-01-08T15:59:10.912Z,19.03
2018-01-08T16:01:38.470Z,18.40
2018-01-08T16:04:06.832Z,17.50
2018-01-08T16:06:34.431Z,20.40
2018-01-08T16:09:02.021Z,18.30
2018-01-08T16:11:30.533Z,19.77
2018-01-08T16:13:58.861Z,19.57
2018-01-08T16:16:26.445Z,19.07
2018-01-08T16:18:54.034Z,20.10
2018-01-08T16:21:21.602Z,19.60
2018-01-08T16:23:49.262Z,20.43
2018-01-08T16:26:18.104Z,17.47
2018-01-08T16:28:45.741Z,19.77
2018-01-08T16:31:13.304Z,21.33
2018-01-08T16:33:40.884Z,19.57
2018-01-08T16:36:08.440Z,18.70
2018-01-08T16:38:36.037Z,14.60
2018-01-08T16:41:03.607Z,13.63
2018-01-08T16:43:31.164Z,17.70
2018-01-08T16:45:58.969Z,18.97
2018-01-08T16:48:26.576Z,15.30
2018-01-08T16:50:54.193Z,18.30
2018-01-08T16:53:22.978Z,18.57
2018-01-08T16:55:50.594Z,17.60
2018-01-08T16:58:18.133Z,20.60
2018-01-08T17:00:45.695Z,19.67
2018-01-08T17:03:13.285Z,21.37
2018-01-08T17:05:41.613Z,19.37
2018-01-08T17:08:09.218Z,19.20
2018-01-08T17:10:36.758Z,20.30
2018-01-08T17:13:04.343Z,19.33
2018-01-08T17:15:31.911Z,20.57
2018-01-08T17:18:00.257Z,20.40
2018-01-08T17:20:28.588Z,20.73
2018-01-08T17:22:56.162Z,19.47
2018-01-08T17:25:23.743Z,18.67
2018-01-08T17:27:51.287Z,20.90
2018-01-08T17:30:18.890Z,18.63
2018-01-08T17:32:47.226Z,23.63
2018-01-08T17:35:14.856Z,21.23
2018-01-08T17:37:42.440Z,22.17
2018-01-08T17:40:10.031Z,24.00
2018-01-08T17:42:37.631Z,22.77
2018-01-08T17:45:05.233Z,21.30
2018-01-08T17:47:33.116Z,18.97
2018-01-08T17:50:00.698Z,21.50
2018-01-08T17:52:28.273Z,22.03
2018-01-08T17:54:57.250Z,20.80
2018-01-08T17:57:24.832Z,24.73
2018-01-08T17:59:52.480Z,22.70
2018-01-08T18:02:21.412Z,21.00
2018-01-08T18:04:49.245Z,20.93
2018-01-08T18:07:16.893Z,20.20
2018-01-08T18:09:45.196Z,21.80
2018-01-08T18:12:12.805Z,21.87
2018-01-08T18:14:40.738Z,21.60
2018-01-08T18:17:08.336Z,21.40
2018-01-08T18:19:36.988Z,22.70
2018-01-08T18:22:04.589Z,21.67
2018-01-08T18:24:32.182Z,21.60
2018-01-08T18:27:00.045Z,22.27
2018-01-08T18:29:27.614Z,22.50
2018-01-08T18:31:55.166Z,23.63
2018-01-08T18:34:22.866Z,20.70
2018-01-08T18:36:50.442Z,23.43
2018-01-08T18:39:18.516Z,23.30
2018-01-08T18:41:46.085Z,19.70
2018-01-08T18:44:13.649Z,22.43
2018-01-08T18:46:41.244Z,22.57
2018-01-08T18:49:08.829Z,22.57
2018-01-08T18:51:36.434Z,20.83
2018-01-08T18:54:04.748Z,22.53
2018-01-08T18:56:32.353Z,22.00
2018-01-08T18:58:59.898Z,23.17
2018-01-08T19:01:27.743Z,20.57
2018-01-08T19:03:55.328Z,22.87
2018-01-08T19:06:22.955Z,21.00
2018-01-08T19:08:50.713Z,20.83
2018-01-08T19:11:18.346Z,24.07
2018-01-08T19:13:46.722Z,23.97
2018-01-08T19:16:14.278Z,21.77
2018-01-08T19:18:41.968Z,20.57
2018-01-08T19:21:09.660Z,23.80
2018-01-08T19:23:37.230Z,22.27
2018-01-08T19:26:04.877Z,23.17
2018-01-08T19:28:33.206Z,22.90
2018-01-08T19:31:01.732Z,24.03
2018-01-08T19:33:29.311Z,22.03
2018-01-08T19:35:57.392Z,22.60
2018-01-08T19:38:25.081Z,22.67
2018-01-08T19:40:53.403Z,23.50
2018-01-08T19:43:20.996Z,22.30
2018-01-08T19:45:48.556Z,24.10
2018-01-08T19:48:16.166Z,22.03
2018-01-08T19:50:43.714Z,22.00
2018-01-08T19:53:11.335Z,22.40
2018-01-08T19:55:38.881Z,23.27
2018-01-08T19:58:07.054Z,23.60
2018-01-08T20:00:34.676Z,20.20
2018-01-08T20:03:02.252Z,22.27
2018-01-08T20:05:29.867Z,25.07
2018-01-08T20:07:57.444Z,22.27
2018-01-08T20:10:25.025Z,22.60
2018-01-08T20:12:52.675Z,22.33
2018-01-08T20:15:20.310Z,21.70
2018-01-08T20:17:47.877Z,22.17
2018-01-08T20:20:15.465Z,21.77
2018-01-08T20:22:43.054Z,21.10
2018-01-08T20:25:10.621Z,22.87
2018-01-08T20:27:38.233Z,19.77
2018-01-08T20:30:05.876Z,19.80
2018-01-08T20:32:34.255Z,20.83
2018-01-08T20:35:01.806Z,20.53
2018-01-08T20:37:29.371Z,21.97
2018-01-08T20:39:57.023Z,21.13
2018-01-08T20:42:24.583Z,21.70
2018-01-08T20:44:52.179Z,21.43
2018-01-08T20:47:19.721Z,19.77
2018-01-08T20:49:48.086Z,22.10
2018-01-08T20:52:15.663Z,19.30
2018-01-08T20:54:44.205Z,19.77
2018-01-08T20:57:11.769Z,19.67
2018-01-08T20:59:40.092Z,20.43
2018-01-08T21:02:07.699Z,22.33
2018-01-08T21:04:35.268Z,21.10
2018-01-08T21:07:02.911Z,21.00
2018-01-08T21:09:30.469Z,20.83
2018-01-08T21:11:58.045Z,19.43
2018-01-08T21:14:25.600Z,20.30
2018-01-08T21:16:53.203Z,20.33
2018-01-08T21:19:21.517Z,19.23
2018-01-08T21:21:49.072Z,20.67
2018-01-08T21:24:16.729Z,19.83
2018-01-08T21:26:44.287Z,18.03
2018-01-08T21:29:11.951Z,18.67
2018-01-08T21:31:39.490Z,19.80
2018-01-08T21:34:07.105Z,19.87
2018-01-08T21:36:34.658Z,18.60
2018-01-08T21:39:02.477Z,17.50
2018-01-08T21:41:30.052Z,20.50
2018-01-08T21:43:57.598Z,19.80
2018-01-08T21:46:25.190Z,16.90
2018-01-08T21:48:52.738Z,20.97
2018-01-08T21:51:20.370Z,18.97
2018-01-08T21:53:47.914Z,19.10
2018-01-08T21:56:15.594Z,19.80
2018-01-08T21:58:43.149Z,19.97
2018-01-08T22:01:11.576Z,19.10
2018-01-08T22:03:39.318Z,18.97
2018-01-08T22:06:06.871Z,22.63
2018-01-08T22:08:34.469Z,20.43
2018-01-08T22:11:02.040Z,19.43
2018-01-08T22:13:29.644Z,19.83
2018-01-08T22:15:57.189Z,19.50
2018-01-08T22:18:25.517Z,18.27
2018-01-08T22:20:53.116Z,19.27
2018-01-08T22:23:21.430Z,21.97
2018-01-08T22:25:49.013Z,19.57
2018-01-08T22:28:16.590Z,23.60
2018-01-08T22:30:44.247Z,36.03
2018-01-08T22:33:11.798Z,19.00
2018-01-08T22:35:39.423Z,27.30
2018-01-08T22:38:07.024Z,19.93
2018-01-08T22:40:34.737Z,17.80
2018-01-08T22:43:02.349Z,20.50
2018-01-08T22:45:29.901Z,22.80
2018-01-08T22:47:57.527Z,20.87
2018-01-08T22:50:25.097Z,16.67
2018-01-08T22:52:52.742Z,21.83
2018-01-08T22:55:20.565Z,19.47
2018-01-08T22:57:48.252Z,20.30
2018-01-08T23:00:16.636Z,21.53
2018-01-08T23:02:44.189Z,22.40
2018-01-08T23:05:12.497Z,19.27
2018-01-08T23:07:40.092Z,17.80
2018-01-08T23:10:07.628Z,20.87
2018-01-08T23:12:35.418Z,21.27
2018-01-08T23:15:02.952Z,22.73
2018-01-08T23:17:30.889Z,18.77
2018-01-08T23:19:58.444Z,21.90
2018-01-08T23:22:26.771Z,21.37
2018-01-08T23:24:54.614Z,19.13
2018-01-08T23:27:22.160Z,19.63
2018-01-08T23:29:49.836Z,20.13
2018-01-08T23:32:17.380Z,21.50
2018-01-08T23:34:44.967Z,15.80
2018-01-08T23:37:12.512Z,21.50
2018-01-08T23:39:40.107Z,21.73
2018-01-08T23:42:07.661Z,18.83
2018-01-08T23:44:35.268Z,22.40
2018-01-08T23:47:02.825Z,21.00
2018-01-08T23:49:30.383Z,20.80
2018-01-08T23:51:58.750Z,20.00
2018-01-08T23:54:26.301Z,19.87
2018-01-08T23:56:53.887Z,22.10
2018-01-08T23:59:21.434Z,23.10
